sensor_id;sensor_type;location;lat;lon;timestamp;noise_LAeq;noise_LA_min;noise_LA_max;noise_LA01;noise_LA95
60116;Laerm;62818;49.394;8.686;2024-01-07T00:01:49;73.38;38.37;85.04;;
60116;Laerm;62818;49.394;8.686;2024-01-07T00:03:51;73.65;38.37;85.03;;
60116;Laerm;62818;49.394;8.686;2024-01-07T00:05:52;73.56;38.81;84.96;;
60116;Laerm;62818;49.394;8.686;2024-01-07T00:07:52;72.45;42.03;85.49;;
60116;Laerm;62818;49.394;8.686;2024-01-07T00:09:53;73.25;38.81;85.37;;
60116;Laerm;62818;49.394;8.686;2024-01-07T00:11:53;73.23;39.92;85.12;;
60116;Laerm;62818;49.394;8.686;2024-01-07T00:13:53;73.80;43.39;85.24;;
60116;Laerm;62818;49.394;8.686;2024-01-07T00:15:55;73.32;37.70;85.24;;
60116;Laerm;62818;49.394;8.686;2024-01-07T00:17:56;72.98;38.81;85.22;;
60116;Laerm;62818;49.394;8.686;2024-01-07T00:19:56;73.15;39.21;85.22;;
60116;Laerm;62818;49.394;8.686;2024-01-07T00:21:57;73.68;39.58;85.34;;
60116;Laerm;62818;49.394;8.686;2024-01-07T00:23:58;73.64;40.03;85.01;;
60116;Laerm;62818;49.394;8.686;2024-01-07T00:25:58;73.22;38.37;84.95;;
60116;Laerm;62818;49.394;8.686;2024-01-07T00:27:59;73.23;38.21;84.87;;
60116;Laerm;62818;49.394;8.686;2024-01-07T00:29:59;72.46;38.81;85.28;;
60116;Laerm;62818;49.394;8.686;2024-01-07T00:32:00;73.21;41.14;85.38;;
60116;Laerm;62818;49.394;8.686;2024-01-07T00:34:00;73.16;40.23;85.13;;
60116;Laerm;62818;49.394;8.686;2024-01-07T00:36:01;73.06;38.67;85.28;;
60116;Laerm;62818;49.394;8.686;2024-01-07T00:38:02;73.59;40.03;85.01;;
60116;Laerm;62818;49.394;8.686;2024-01-07T00:40:03;73.15;38.21;85.27;;
60116;Laerm;62818;49.394;8.686;2024-01-07T00:42:04;73.21;37.70;84.83;;
60116;Laerm;62818;49.394;8.686;2024-01-07T00:44:05;72.86;38.74;85.48;;
60116;Laerm;62818;49.394;8.686;2024-01-07T00:46:05;73.07;37.70;85.57;;
60116;Laerm;62818;49.394;8.686;2024-01-07T00:48:06;73.14;37.12;85.09;;
60116;Laerm;62818;49.394;8.686;2024-01-07T00:50:09;73.28;37.52;85.31;;
60116;Laerm;62818;49.394;8.686;2024-01-07T00:52:10;73.27;40.33;85.15;;
60116;Laerm;62818;49.394;8.686;2024-01-07T00:54:11;72.92;37.32;85.35;;
60116;Laerm;62818;49.394;8.686;2024-01-07T00:56:11;73.18;38.21;85.08;;
60116;Laerm;62818;49.394;8.686;2024-01-07T00:58:12;73.23;39.34;85.06;;
60116;Laerm;62818;49.394;8.686;2024-01-07T01:00:12;73.11;42.22;85.36;;
60116;Laerm;62818;49.394;8.686;2024-01-07T01:02:13;73.22;37.70;85.17;;
60116;Laerm;62818;49.394;8.686;2024-01-07T01:04:13;72.83;38.67;85.06;;
60116;Laerm;62818;49.394;8.686;2024-01-07T01:06:14;73.13;40.13;85.07;;
60116;Laerm;62818;49.394;8.686;2024-01-07T01:08:14;73.07;39.58;84.94;;
60116;Laerm;62818;49.394;8.686;2024-01-07T01:10:15;73.04;34.69;84.68;;
60116;Laerm;62818;49.394;8.686;2024-01-07T01:12:17;73.29;39.58;85.51;;
60116;Laerm;62818;49.394;8.686;2024-01-07T01:14:17;72.81;39.08;85.46;;
60116;Laerm;62818;49.394;8.686;2024-01-07T01:16:18;72.97;40.33;85.37;;
60116;Laerm;62818;49.394;8.686;2024-01-07T01:18:21;71.91;38.37;85.48;;
60116;Laerm;62818;49.394;8.686;2024-01-07T01:20:22;73.20;37.88;85.09;;
60116;Laerm;62818;49.394;8.686;2024-01-07T01:22:22;73.04;38.05;84.78;;
60116;Laerm;62818;49.394;8.686;2024-01-07T01:24:23;73.00;37.12;84.98;;
60116;Laerm;62818;49.394;8.686;2024-01-07T01:26:23;73.16;38.67;85.33;;
60116;Laerm;62818;49.394;8.686;2024-01-07T01:28:24;73.09;37.52;85.04;;
60116;Laerm;62818;49.394;8.686;2024-01-07T01:30:24;73.32;40.03;84.89;;
60116;Laerm;62818;49.394;8.686;2024-01-07T01:32:24;73.21;40.13;84.90;;
60116;Laerm;62818;49.394;8.686;2024-01-07T01:34:25;73.20;38.95;84.94;;
60116;Laerm;62818;49.394;8.686;2024-01-07T01:36:25;72.93;40.13;85.40;;
60116;Laerm;62818;49.394;8.686;2024-01-07T01:38:26;73.26;39.46;85.38;;
60116;Laerm;62818;49.394;8.686;2024-01-07T01:40:27;73.13;37.88;85.10;;
60116;Laerm;62818;49.394;8.686;2024-01-07T01:42:27;73.16;39.34;85.21;;
60116;Laerm;62818;49.394;8.686;2024-01-07T01:44:28;73.62;39.58;84.71;;
60116;Laerm;62818;49.394;8.686;2024-01-07T01:46:29;73.16;39.70;85.00;;
60116;Laerm;62818;49.394;8.686;2024-01-07T01:48:30;73.33;37.52;84.64;;
60116;Laerm;62818;49.394;8.686;2024-01-07T01:50:30;73.69;37.70;85.16;;
60116;Laerm;62818;49.394;8.686;2024-01-07T01:52:31;72.76;38.67;85.46;;
60116;Laerm;62818;49.394;8.686;2024-01-07T01:54:32;73.24;38.21;85.52;;
60116;Laerm;62818;49.394;8.686;2024-01-07T01:56:33;72.02;37.88;85.15;;
60116;Laerm;62818;49.394;8.686;2024-01-07T01:58:34;73.24;38.05;84.89;;
60116;Laerm;62818;49.394;8.686;2024-01-07T02:00:34;73.24;44.23;85.45;;
60116;Laerm;62818;49.394;8.686;2024-01-07T02:02:34;72.74;44.31;85.20;;
60116;Laerm;62818;49.394;8.686;2024-01-07T02:04:35;73.67;47.96;84.53;;
60116;Laerm;62818;49.394;8.686;2024-01-07T02:06:36;72.35;45.91;84.77;;
60116;Laerm;62818;49.394;8.686;2024-01-07T02:08:36;73.31;45.20;85.07;;
60116;Laerm;62818;49.394;8.686;2024-01-07T02:10:37;73.08;44.94;85.06;;
60116;Laerm;62818;49.394;8.686;2024-01-07T02:12:37;73.27;43.24;84.74;;
60116;Laerm;62818;49.394;8.686;2024-01-07T02:14:38;73.17;41.96;85.24;;
60116;Laerm;62818;49.394;8.686;2024-01-07T02:16:39;73.22;44.51;85.08;;
60116;Laerm;62818;49.394;8.686;2024-01-07T02:18:44;72.82;44.07;84.94;;
60116;Laerm;62818;49.394;8.686;2024-01-07T02:20:45;72.99;43.94;85.05;;
60116;Laerm;62818;49.394;8.686;2024-01-07T02:22:45;73.60;44.12;84.93;;
60116;Laerm;62818;49.394;8.686;2024-01-07T02:24:46;73.30;44.76;85.17;;
60116;Laerm;62818;49.394;8.686;2024-01-07T02:26:46;73.06;42.22;85.71;;
60116;Laerm;62818;49.394;8.686;2024-01-07T02:28:47;73.36;41.89;85.56;;
60116;Laerm;62818;49.394;8.686;2024-01-07T02:30:47;73.16;40.62;84.76;;
60116;Laerm;62818;49.394;8.686;2024-01-07T02:32:48;73.10;39.34;85.38;;
60116;Laerm;62818;49.394;8.686;2024-01-07T02:34:48;72.95;39.70;85.00;;
60116;Laerm;62818;49.394;8.686;2024-01-07T02:36:49;73.74;40.23;85.26;;
60116;Laerm;62818;49.394;8.686;2024-01-07T02:38:49;73.16;40.62;85.17;;
60116;Laerm;62818;49.394;8.686;2024-01-07T02:40:50;73.16;40.13;85.23;;
60116;Laerm;62818;49.394;8.686;2024-01-07T02:42:50;73.67;40.71;84.89;;
60116;Laerm;62818;49.394;8.686;2024-01-07T02:44:50;73.62;40.03;84.82;;
60116;Laerm;62818;49.394;8.686;2024-01-07T02:46:51;73.43;40.13;85.61;;
60116;Laerm;62818;49.394;8.686;2024-01-07T02:48:51;73.08;39.92;85.00;;
60116;Laerm;62818;49.394;8.686;2024-01-07T02:50:52;72.63;39.89;85.36;;
60116;Laerm;62818;49.394;8.686;2024-01-07T02:52:52;73.08;39.34;85.49;;
60116;Laerm;62818;49.394;8.686;2024-01-07T02:54:52;73.02;40.33;84.82;;
60116;Laerm;62818;49.394;8.686;2024-01-07T02:56:53;72.71;39.11;84.86;;
60116;Laerm;62818;49.394;8.686;2024-01-07T02:58:53;73.59;39.78;84.77;;
60116;Laerm;62818;49.394;8.686;2024-01-07T03:00:54;72.93;39.99;84.73;;
60116;Laerm;62818;49.394;8.686;2024-01-07T03:02:54;73.11;39.21;84.75;;
60116;Laerm;62818;49.394;8.686;2024-01-07T03:04:55;73.11;38.21;85.10;;
60116;Laerm;62818;49.394;8.686;2024-01-07T03:06:55;73.44;36.69;84.68;;
60116;Laerm;62818;49.394;8.686;2024-01-07T03:08:55;73.04;40.80;85.16;;
60116;Laerm;62818;49.394;8.686;2024-01-07T03:10:56;73.08;40.33;85.31;;
60116;Laerm;62818;49.394;8.686;2024-01-07T03:12:56;73.03;37.32;85.54;;
60116;Laerm;62818;49.394;8.686;2024-01-07T03:14:57;72.75;35.94;85.62;;
60116;Laerm;62818;49.394;8.686;2024-01-07T03:16:57;73.19;35.04;85.11;;
60116;Laerm;62818;49.394;8.686;2024-01-07T03:18:57;73.29;38.05;85.65;;
60116;Laerm;62818;49.394;8.686;2024-01-07T03:20:58;73.21;35.04;84.99;;
60116;Laerm;62818;49.394;8.686;2024-01-07T03:23:00;73.06;37.70;85.21;;
60116;Laerm;62818;49.394;8.686;2024-01-07T03:25:01;73.63;34.31;84.90;;
60116;Laerm;62818;49.394;8.686;2024-01-07T03:27:01;73.06;37.12;85.59;;
60116;Laerm;62818;49.394;8.686;2024-01-07T03:29:02;73.25;35.66;85.31;;
60116;Laerm;62818;49.394;8.686;2024-01-07T03:31:14;72.87;37.52;85.22;;
60116;Laerm;62818;49.394;8.686;2024-01-07T03:33:14;73.54;37.88;84.63;;
60116;Laerm;62818;49.394;8.686;2024-01-07T03:35:15;73.25;34.69;85.29;;
60116;Laerm;62818;49.394;8.686;2024-01-07T03:37:15;73.26;35.04;84.92;;
60116;Laerm;62818;49.394;8.686;2024-01-07T03:39:17;73.01;40.80;84.94;;
60116;Laerm;62818;49.394;8.686;2024-01-07T03:41:19;73.29;41.14;85.49;;
60116;Laerm;62818;49.394;8.686;2024-01-07T03:43:19;73.44;41.61;84.78;;
60116;Laerm;62818;49.394;8.686;2024-01-07T03:45:20;73.00;40.53;85.15;;
60116;Laerm;62818;49.394;8.686;2024-01-07T03:47:20;72.83;38.05;85.39;;
60116;Laerm;62818;49.394;8.686;2024-01-07T03:49:21;73.38;35.66;84.99;;
60116;Laerm;62818;49.394;8.686;2024-01-07T03:51:22;73.33;35.36;84.65;;
60116;Laerm;62818;49.394;8.686;2024-01-07T03:53:22;72.73;35.94;85.49;;
60116;Laerm;62818;49.394;8.686;2024-01-07T03:55:23;73.02;39.70;84.86;;
60116;Laerm;62818;49.394;8.686;2024-01-07T03:57:24;73.04;39.92;84.65;;
60116;Laerm;62818;49.394;8.686;2024-01-07T03:59:24;73.51;39.58;84.79;;
60116;Laerm;62818;49.394;8.686;2024-01-07T04:01:25;73.00;38.37;85.21;;
60116;Laerm;62818;49.394;8.686;2024-01-07T04:03:26;73.72;38.37;84.86;;
60116;Laerm;62818;49.394;8.686;2024-01-07T04:05:26;73.40;38.95;85.12;;
60116;Laerm;62818;49.394;8.686;2024-01-07T04:07:27;73.45;36.69;85.41;;
60116;Laerm;62818;49.394;8.686;2024-01-07T04:09:27;72.94;37.52;84.91;;
60116;Laerm;62818;49.394;8.686;2024-01-07T04:11:28;72.61;40.62;85.55;;
60116;Laerm;62818;49.394;8.686;2024-01-07T04:13:28;72.26;40.03;84.81;;
60116;Laerm;62818;49.394;8.686;2024-01-07T04:15:29;73.26;39.21;84.58;;
60116;Laerm;62818;49.394;8.686;2024-01-07T04:17:30;72.90;42.53;85.16;;
60116;Laerm;62818;49.394;8.686;2024-01-07T04:19:30;72.71;40.71;85.13;;
60116;Laerm;62818;49.394;8.686;2024-01-07T04:21:30;73.18;42.09;85.19;;
60116;Laerm;62818;49.394;8.686;2024-01-07T04:23:31;73.15;37.88;85.40;;
60116;Laerm;62818;49.394;8.686;2024-01-07T04:25:34;72.65;36.20;85.08;;
60116;Laerm;62818;49.394;8.686;2024-01-07T04:27:35;72.67;36.69;85.44;;
60116;Laerm;62818;49.394;8.686;2024-01-07T04:29:35;72.98;41.06;85.11;;
60116;Laerm;62818;49.394;8.686;2024-01-07T04:31:36;73.12;40.33;85.15;;
60116;Laerm;62818;49.394;8.686;2024-01-07T04:33:37;73.21;40.03;85.12;;
60116;Laerm;62818;49.394;8.686;2024-01-07T04:35:37;73.07;36.20;85.22;;
60116;Laerm;62818;49.394;8.686;2024-01-07T04:37:38;73.21;36.45;84.94;;
60116;Laerm;62818;49.394;8.686;2024-01-07T04:39:39;73.33;37.70;85.19;;
60116;Laerm;62818;49.394;8.686;2024-01-07T04:41:39;73.15;40.03;85.33;;
60116;Laerm;62818;49.394;8.686;2024-01-07T04:43:42;73.09;40.71;85.41;;
60116;Laerm;62818;49.394;8.686;2024-01-07T04:45:42;73.39;38.05;84.88;;
60116;Laerm;62818;49.394;8.686;2024-01-07T04:47:43;72.37;36.45;84.96;;
60116;Laerm;62818;49.394;8.686;2024-01-07T04:49:43;73.45;39.21;85.02;;
60116;Laerm;62818;49.394;8.686;2024-01-07T04:51:44;72.87;38.52;85.51;;
60116;Laerm;62818;49.394;8.686;2024-01-07T04:53:44;73.21;40.53;85.34;;
60116;Laerm;62818;49.394;8.686;2024-01-07T04:55:45;73.14;39.81;84.88;;
60116;Laerm;62818;49.394;8.686;2024-01-07T04:57:45;73.52;40.43;84.95;;
60116;Laerm;62818;49.394;8.686;2024-01-07T04:59:47;73.11;38.37;84.81;;
60116;Laerm;62818;49.394;8.686;2024-01-07T05:01:48;73.58;36.45;84.94;;
60116;Laerm;62818;49.394;8.686;2024-01-07T05:03:48;72.75;39.70;85.15;;
60116;Laerm;62818;49.394;8.686;2024-01-07T05:05:49;73.26;37.12;84.80;;
60116;Laerm;62818;49.394;8.686;2024-01-07T05:07:49;73.17;40.71;84.95;;
60116;Laerm;62818;49.394;8.686;2024-01-07T05:09:50;73.56;38.95;85.17;;
60116;Laerm;62818;49.394;8.686;2024-01-07T05:11:50;73.16;40.43;85.17;;
60116;Laerm;62818;49.394;8.686;2024-01-07T05:13:51;73.36;38.21;84.88;;
60116;Laerm;62818;49.394;8.686;2024-01-07T05:15:51;73.61;37.70;84.33;;
60116;Laerm;62818;49.394;8.686;2024-01-07T05:17:53;73.48;37.12;84.92;;
60116;Laerm;62818;49.394;8.686;2024-01-07T05:19:54;73.54;38.05;85.21;;
60116;Laerm;62818;49.394;8.686;2024-01-07T05:21:55;73.07;38.81;85.26;;
60116;Laerm;62818;49.394;8.686;2024-01-07T05:23:55;73.47;36.45;85.38;;
60116;Laerm;62818;49.394;8.686;2024-01-07T05:25:56;73.36;37.32;85.41;;
60116;Laerm;62818;49.394;8.686;2024-01-07T05:27:56;73.15;39.34;84.78;;
60116;Laerm;62818;49.394;8.686;2024-01-07T05:29:57;73.47;40.89;85.30;;
60116;Laerm;62818;49.394;8.686;2024-01-07T05:31:57;73.12;38.67;85.07;;
60116;Laerm;62818;49.394;8.686;2024-01-07T05:34:00;73.11;38.05;85.09;;
60116;Laerm;62818;49.394;8.686;2024-01-07T05:36:01;73.14;37.70;85.07;;
60116;Laerm;62818;49.394;8.686;2024-01-07T05:38:01;73.35;39.70;84.93;;
60116;Laerm;62818;49.394;8.686;2024-01-07T05:40:02;73.20;36.69;84.99;;
60116;Laerm;62818;49.394;8.686;2024-01-07T05:42:02;72.19;36.45;84.95;;
60116;Laerm;62818;49.394;8.686;2024-01-07T05:44:03;73.21;36.91;84.84;;
60116;Laerm;62818;49.394;8.686;2024-01-07T05:46:04;73.18;36.20;84.45;;
60116;Laerm;62818;49.394;8.686;2024-01-07T05:48:05;73.39;36.69;84.75;;
60116;Laerm;62818;49.394;8.686;2024-01-07T05:50:05;73.03;36.69;85.36;;
60116;Laerm;62818;49.394;8.686;2024-01-07T05:52:06;72.50;38.67;85.42;;
60116;Laerm;62818;49.394;8.686;2024-01-07T05:54:06;73.24;38.05;84.78;;
60116;Laerm;62818;49.394;8.686;2024-01-07T05:56:07;72.33;38.95;84.83;;
60116;Laerm;62818;49.394;8.686;2024-01-07T05:58:08;72.77;38.05;85.10;;
60116;Laerm;62818;49.394;8.686;2024-01-07T06:00:09;73.14;38.81;84.78;;
60116;Laerm;62818;49.394;8.686;2024-01-07T06:02:11;73.15;37.12;84.82;;
60116;Laerm;62818;49.394;8.686;2024-01-07T06:04:12;73.13;37.88;84.86;;
60116;Laerm;62818;49.394;8.686;2024-01-07T06:06:14;72.98;37.52;85.13;;
60116;Laerm;62818;49.394;8.686;2024-01-07T06:08:15;73.15;39.34;85.14;;
60116;Laerm;62818;49.394;8.686;2024-01-07T06:10:15;72.52;37.32;85.42;;
60116;Laerm;62818;49.394;8.686;2024-01-07T06:12:15;72.75;39.81;85.26;;
60116;Laerm;62818;49.394;8.686;2024-01-07T06:14:16;71.49;40.89;85.16;;
60116;Laerm;62818;49.394;8.686;2024-01-07T06:16:16;73.22;41.61;85.17;;
60116;Laerm;62818;49.394;8.686;2024-01-07T06:18:17;72.55;40.33;85.56;;
60116;Laerm;62818;49.394;8.686;2024-01-07T06:20:17;72.63;35.66;85.72;;
60116;Laerm;62818;49.394;8.686;2024-01-07T06:22:18;72.93;35.66;84.73;;
60116;Laerm;62818;49.394;8.686;2024-01-07T06:24:18;73.29;39.08;84.48;;
60116;Laerm;62818;49.394;8.686;2024-01-07T06:26:19;72.98;39.21;85.32;;
60116;Laerm;62818;49.394;8.686;2024-01-07T06:28:19;72.40;40.71;85.25;;
60116;Laerm;62818;49.394;8.686;2024-01-07T06:30:20;73.11;39.81;85.05;;
60116;Laerm;62818;49.394;8.686;2024-01-07T06:32:21;72.17;40.43;85.01;;
60116;Laerm;62818;49.394;8.686;2024-01-07T06:34:21;73.34;36.20;84.80;;
60116;Laerm;62818;49.394;8.686;2024-01-07T06:36:22;72.34;35.36;84.98;;
60116;Laerm;62818;49.394;8.686;2024-01-07T06:38:23;71.59;38.21;85.04;;
60116;Laerm;62818;49.394;8.686;2024-01-07T06:40:25;72.96;37.70;84.59;;
60116;Laerm;62818;49.394;8.686;2024-01-07T06:42:25;72.82;38.21;84.99;;
60116;Laerm;62818;49.394;8.686;2024-01-07T06:44:26;72.92;38.81;83.97;;
60116;Laerm;62818;49.394;8.686;2024-01-07T06:46:27;72.24;38.21;85.30;;
60116;Laerm;62818;49.394;8.686;2024-01-07T06:48:27;72.11;41.14;84.88;;
60116;Laerm;62818;49.394;8.686;2024-01-07T06:50:27;72.56;38.67;85.38;;
60116;Laerm;62818;49.394;8.686;2024-01-07T06:52:28;72.47;39.34;85.38;;
60116;Laerm;62818;49.394;8.686;2024-01-07T06:54:28;72.32;40.43;85.15;;
60116;Laerm;62818;49.394;8.686;2024-01-07T06:56:29;70.80;37.88;85.24;;
60116;Laerm;62818;49.394;8.686;2024-01-07T06:58:29;72.48;37.70;84.85;;
60116;Laerm;62818;49.394;8.686;2024-01-07T07:00:30;72.62;38.21;84.89;;
60116;Laerm;62818;49.394;8.686;2024-01-07T07:02:31;72.79;38.81;85.06;;
60116;Laerm;62818;49.394;8.686;2024-01-07T07:04:31;72.38;38.81;85.08;;
60116;Laerm;62818;49.394;8.686;2024-01-07T07:06:32;72.35;37.87;85.30;;
60116;Laerm;62818;49.394;8.686;2024-01-07T07:08:32;72.30;38.21;85.43;;
60116;Laerm;62818;49.394;8.686;2024-01-07T07:10:33;71.70;39.58;84.88;;
60116;Laerm;62818;49.394;8.686;2024-01-07T07:12:33;72.20;40.89;85.21;;
60116;Laerm;62818;49.394;8.686;2024-01-07T07:14:33;71.95;40.33;85.19;;
60116;Laerm;62818;49.394;8.686;2024-01-07T07:16:35;72.33;40.98;84.86;;
60116;Laerm;62818;49.394;8.686;2024-01-07T07:18:35;71.69;42.03;85.01;;
60116;Laerm;62818;49.394;8.686;2024-01-07T07:20:38;70.44;41.53;85.45;;
60116;Laerm;62818;49.394;8.686;2024-01-07T07:22:38;73.01;41.22;84.61;;
60116;Laerm;62818;49.394;8.686;2024-01-07T07:24:40;72.09;42.29;84.82;;
60116;Laerm;62818;49.394;8.686;2024-01-07T07:26:41;72.59;39.34;85.23;;
60116;Laerm;62818;49.394;8.686;2024-01-07T07:28:42;73.10;43.19;85.26;;
60116;Laerm;62818;49.394;8.686;2024-01-07T07:30:43;73.06;41.96;85.52;;
60116;Laerm;62818;49.394;8.686;2024-01-07T07:32:43;72.65;42.65;85.04;;
60116;Laerm;62818;49.394;8.686;2024-01-07T07:34:44;73.04;41.22;84.47;;
60116;Laerm;62818;49.394;8.686;2024-01-07T07:36:44;71.14;40.03;85.53;;
60116;Laerm;62818;49.394;8.686;2024-01-07T07:38:45;72.80;41.38;85.21;;
60116;Laerm;62818;49.394;8.686;2024-01-07T07:40:46;72.41;40.98;85.46;;
60116;Laerm;62818;49.394;8.686;2024-01-07T07:42:52;72.39;41.75;84.95;;
60116;Laerm;62818;49.394;8.686;2024-01-07T07:44:53;72.44;42.35;85.24;;
60116;Laerm;62818;49.394;8.686;2024-01-07T07:46:53;73.00;41.75;84.63;;
60116;Laerm;62818;49.394;8.686;2024-01-07T07:48:54;72.65;42.93;85.20;;
60116;Laerm;62818;49.394;8.686;2024-01-07T07:50:54;72.87;41.30;85.01;;
60116;Laerm;62818;49.394;8.686;2024-01-07T07:52:55;72.79;41.61;84.67;;
60116;Laerm;62818;49.394;8.686;2024-01-07T07:54:55;73.45;42.82;84.55;;
60116;Laerm;62818;49.394;8.686;2024-01-07T07:56:56;73.03;41.14;85.23;;
60116;Laerm;62818;49.394;8.686;2024-01-07T07:58:56;72.44;41.96;84.71;;
60116;Laerm;62818;49.394;8.686;2024-01-07T08:00:57;72.65;38.95;84.48;;
60116;Laerm;62818;49.394;8.686;2024-01-07T08:02:58;72.85;41.61;85.12;;
60116;Laerm;62818;49.394;8.686;2024-01-07T08:05:01;73.06;40.53;84.50;;
60116;Laerm;62818;49.394;8.686;2024-01-07T08:07:02;72.51;40.13;84.64;;
60116;Laerm;62818;49.394;8.686;2024-01-07T08:09:02;73.02;40.71;85.43;;
60116;Laerm;62818;49.394;8.686;2024-01-07T08:11:03;72.43;41.48;85.03;;
60116;Laerm;62818;49.394;8.686;2024-01-07T08:13:07;71.42;40.89;85.00;;
60116;Laerm;62818;49.394;8.686;2024-01-07T08:15:09;72.36;41.38;84.99;;
60116;Laerm;62818;49.394;8.686;2024-01-07T08:17:09;72.92;43.49;84.37;;
60116;Laerm;62818;49.394;8.686;2024-01-07T08:19:10;72.52;42.98;84.17;;
60116;Laerm;62818;49.394;8.686;2024-01-07T08:21:10;72.90;40.98;84.12;;
60116;Laerm;62818;49.394;8.686;2024-01-07T08:23:11;72.30;39.58;84.46;;
60116;Laerm;62818;49.394;8.686;2024-01-07T08:25:11;72.19;43.39;84.63;;
60116;Laerm;62818;49.394;8.686;2024-01-07T08:27:13;71.61;41.46;84.88;;
60116;Laerm;62818;49.394;8.686;2024-01-07T08:29:13;71.46;42.03;84.40;;
60116;Laerm;62818;49.394;8.686;2024-01-07T08:31:14;71.99;41.06;84.68;;
60116;Laerm;62818;49.394;8.686;2024-01-07T08:33:14;71.71;43.24;84.42;;
60116;Laerm;62818;49.394;8.686;2024-01-07T08:35:15;72.19;41.22;84.04;;
60116;Laerm;62818;49.394;8.686;2024-01-07T08:37:15;71.72;42.76;84.51;;
60116;Laerm;62818;49.394;8.686;2024-01-07T08:39:16;71.30;38.95;84.33;;
60116;Laerm;62818;49.394;8.686;2024-01-07T08:41:18;70.76;39.21;84.14;;
60116;Laerm;62818;49.394;8.686;2024-01-07T08:43:18;70.50;39.70;84.08;;
60116;Laerm;62818;49.394;8.686;2024-01-07T08:45:18;71.45;43.77;83.43;;
60116;Laerm;62818;49.394;8.686;2024-01-07T08:47:19;71.23;43.54;83.63;;
60116;Laerm;62818;49.394;8.686;2024-01-07T08:49:19;71.99;42.09;84.33;;
60116;Laerm;62818;49.394;8.686;2024-01-07T08:51:20;71.88;44.07;84.29;;
60116;Laerm;62818;49.394;8.686;2024-01-07T08:53:20;71.90;42.88;83.94;;
60116;Laerm;62818;49.394;8.686;2024-01-07T08:55:22;72.12;44.76;83.78;;
60116;Laerm;62818;49.394;8.686;2024-01-07T08:57:22;71.82;43.19;84.26;;
60116;Laerm;62818;49.394;8.686;2024-01-07T08:59:23;72.50;43.19;84.24;;
60116;Laerm;62818;49.394;8.686;2024-01-07T09:01:24;72.24;42.47;84.73;;
60116;Laerm;62818;49.394;8.686;2024-01-07T09:03:24;72.38;43.19;83.97;;
60116;Laerm;62818;49.394;8.686;2024-01-07T09:05:25;72.26;40.71;84.37;;
60116;Laerm;62818;49.394;8.686;2024-01-07T09:07:25;71.61;38.47;84.33;;
60116;Laerm;62818;49.394;8.686;2024-01-07T09:09:26;71.78;41.61;84.89;;
60116;Laerm;62818;49.394;8.686;2024-01-07T09:11:26;72.29;42.82;84.74;;
60116;Laerm;62818;49.394;8.686;2024-01-07T09:13:27;72.68;43.68;84.10;;
60116;Laerm;62818;49.394;8.686;2024-01-07T09:15:27;71.28;44.19;84.59;;
60116;Laerm;62818;49.394;8.686;2024-01-07T09:17:28;72.14;41.68;84.77;;
60116;Laerm;62818;49.394;8.686;2024-01-07T09:19:29;71.37;43.86;84.21;;
60116;Laerm;62818;49.394;8.686;2024-01-07T09:21:30;72.52;43.24;84.03;;
60116;Laerm;62818;49.394;8.686;2024-01-07T09:23:30;71.54;43.54;84.76;;
60116;Laerm;62818;49.394;8.686;2024-01-07T09:25:30;71.79;42.71;84.95;;
60116;Laerm;62818;49.394;8.686;2024-01-07T09:27:32;71.52;42.09;83.72;;
60116;Laerm;62818;49.394;8.686;2024-01-07T09:29:33;72.04;41.82;84.15;;
60116;Laerm;62818;49.394;8.686;2024-01-07T09:31:33;70.57;41.53;84.44;;
60116;Laerm;62818;49.394;8.686;2024-01-07T09:33:34;71.15;42.59;83.62;;
60116;Laerm;62818;49.394;8.686;2024-01-07T09:35:35;71.94;41.61;83.86;;
60116;Laerm;62818;49.394;8.686;2024-01-07T09:37:36;71.38;41.68;83.76;;
60116;Laerm;62818;49.394;8.686;2024-01-07T09:39:40;70.92;41.46;83.60;;
60116;Laerm;62818;49.394;8.686;2024-01-07T09:41:41;70.97;41.53;83.38;;
60116;Laerm;62818;49.394;8.686;2024-01-07T09:43:42;71.07;40.98;83.58;;
60116;Laerm;62818;49.394;8.686;2024-01-07T09:45:46;71.25;39.58;82.38;;
60116;Laerm;62818;49.394;8.686;2024-01-07T09:47:48;70.42;41.26;83.18;;
60116;Laerm;62818;49.394;8.686;2024-01-07T09:49:49;70.82;42.41;82.65;;
60116;Laerm;62818;49.394;8.686;2024-01-07T09:51:53;70.31;41.82;82.49;;
60116;Laerm;62818;49.394;8.686;2024-01-07T09:54:03;69.72;41.75;82.68;;
60116;Laerm;62818;49.394;8.686;2024-01-07T09:56:29;68.73;41.06;82.41;;
60116;Laerm;62818;49.394;8.686;2024-01-07T09:58:32;70.25;41.38;81.42;;
60116;Laerm;62818;49.394;8.686;2024-01-07T10:00:33;69.65;39.34;80.37;;
60116;Laerm;62818;49.394;8.686;2024-01-07T10:02:34;69.26;40.71;80.69;;
60116;Laerm;62818;49.394;8.686;2024-01-07T10:04:35;69.04;40.89;81.37;;
60116;Laerm;62818;49.394;8.686;2024-01-07T10:06:36;69.98;41.75;82.89;;
60116;Laerm;62818;49.394;8.686;2024-01-07T10:08:38;70.23;42.09;82.32;;
60116;Laerm;62818;49.394;8.686;2024-01-07T10:10:39;71.16;41.14;82.79;;
60116;Laerm;62818;49.394;8.686;2024-01-07T10:12:44;71.17;42.16;83.15;;
60116;Laerm;62818;49.394;8.686;2024-01-07T10:14:46;70.69;40.98;83.48;;
60116;Laerm;62818;49.394;8.686;2024-01-07T10:16:47;71.74;42.59;83.19;;
60116;Laerm;62818;49.394;8.686;2024-01-07T10:18:47;71.64;43.19;83.97;;
60116;Laerm;62818;49.394;8.686;2024-01-07T10:20:48;71.50;43.68;83.54;;
60116;Laerm;62818;49.394;8.686;2024-01-07T10:22:52;71.81;42.47;84.12;;
60116;Laerm;62818;49.394;8.686;2024-01-07T10:24:52;71.84;42.88;83.70;;
60116;Laerm;62818;49.394;8.686;2024-01-07T10:26:53;72.01;41.38;83.36;;
60116;Laerm;62818;49.394;8.686;2024-01-07T10:28:53;70.67;46.50;84.10;;
60116;Laerm;62818;49.394;8.686;2024-01-07T10:30:54;71.55;40.33;84.96;;
60116;Laerm;62818;49.394;8.686;2024-01-07T10:32:57;72.04;43.77;83.78;;
60116;Laerm;62818;49.394;8.686;2024-01-07T10:35:03;72.31;41.61;83.79;;
60116;Laerm;62818;49.394;8.686;2024-01-07T10:37:05;72.13;42.29;83.81;;
60116;Laerm;62818;49.394;8.686;2024-01-07T10:39:05;71.94;41.53;83.55;;
60116;Laerm;62818;49.394;8.686;2024-01-07T10:41:07;71.29;40.43;84.36;;
60116;Laerm;62818;49.394;8.686;2024-01-07T10:43:09;71.72;43.34;83.54;;
60116;Laerm;62818;49.394;8.686;2024-01-07T10:45:10;71.19;42.41;83.33;;
60116;Laerm;62818;49.394;8.686;2024-01-07T10:47:13;71.82;40.53;83.63;;
60116;Laerm;62818;49.394;8.686;2024-01-07T10:49:20;71.42;41.14;83.34;;
60116;Laerm;62818;49.394;8.686;2024-01-07T10:51:21;72.37;40.43;83.48;;
60116;Laerm;62818;49.394;8.686;2024-01-07T10:53:25;71.38;40.71;83.06;;
60116;Laerm;62818;49.394;8.686;2024-01-07T10:55:34;70.80;42.65;82.44;;
60116;Laerm;62818;49.394;8.686;2024-01-07T10:57:48;68.82;41.38;82.37;;
60116;Laerm;62818;49.394;8.686;2024-01-07T10:59:51;71.58;5.00;99.01;;
60116;Laerm;62818;49.394;8.686;2024-01-07T11:01:54;70.31;5.00;96.88;;
60116;Laerm;62818;49.394;8.686;2024-01-07T11:06:57;67.88;5.00;96.88;;
60116;Laerm;62818;49.394;8.686;2024-01-07T11:09:19;70.00;5.00;96.82;;
60116;Laerm;62818;49.394;8.686;2024-01-07T11:11:40;74.05;5.00;98.83;;
60116;Laerm;62818;49.394;8.686;2024-01-07T11:13:41;75.99;5.00;110.44;;
60116;Laerm;62818;49.394;8.686;2024-01-07T11:17:48;71.08;5.00;98.64;;
60116;Laerm;62818;49.394;8.686;2024-01-07T11:19:54;65.74;52.30;79.05;;
60116;Laerm;62818;49.394;8.686;2024-01-07T11:22:25;66.07;47.00;78.32;;
60116;Laerm;62818;49.394;8.686;2024-01-07T11:24:38;67.18;43.63;78.73;;